Nord Steady — S6ME7 — position and weather

sailwx.info

Track history (hours):
 
Tides and Currents Weather Stations Pressure Air Temp Water Temp Dewpoint Dewpoint Depression Visibility Wind Speed Wind Dir Waves Ship Positions

Nord Steady

Last reported at 2017-Oct-22 10:01 UTC. Time now 2017-Oct-22 10:25 UTC.
Position N 37°46' W 122°21'.

Length 183 m; draft 8.2 m.

Type: Tanker. MMSI: 566739000.

Date/timePositionNaut miles runAvg speedWind from/ knotsBaromVisibWave heightAir tempDewpointWater temp
2017-Oct-22 10:01N 37°46' W 122°21'4 9.0
2017-Oct-22 09:30N 37°50' W 122°24'510.7
2017-Oct-22 09:00N 37°55' W 122°27'5 9.5
2017-Oct-22 08:30N 37°59' W 122°25'5 9.5
2017-Oct-22 08:00N 38°03' W 122°21'4 8.3
2017-Oct-22 07:30N 38°03' W 122°16'0 0.1
2017-Oct-22 07:00N 38°03' W 122°16'0 0.0
2017-Oct-21 07:48N 38°03' W 122°16'0 1.7
2017-Oct-21 07:30N 38°04' W 122°16'4 8.8
2017-Oct-21 07:00N 38°02' W 122°22'611.2
2017-Oct-21 06:30N 37°58' W 122°26'611.1
2017-Oct-21 06:00N 37°52' W 122°25'5 9.4
2017-Oct-21 05:30N 37°48' W 122°23'3 5.2
2017-Oct-21 05:00N 37°46' W 122°21'0 0.1
2017-Oct-21 04:30N 37°46' W 122°21'0 0.0
2017-Oct-21 04:00N 37°46' W 122°21'0 0.1
2017-Oct-21 03:30N 37°46' W 122°21'0 0.2
2017-Oct-21 03:00N 37°46' W 122°21'0 0.3
2017-Oct-21 02:30N 37°46' W 122°21'0 0.1
2017-Oct-21 02:00N 37°46' W 122°21'0 0.0
2017-Oct-21 01:30N 37°46' W 122°21'0 0.0
2017-Oct-21 01:00N 37°46' W 122°21'0 0.0
2017-Oct-21 00:30N 37°46' W 122°21'0 0.0
2017-Oct-21 00:00N 37°46' W 122°21'0 0.0
2017-Oct-20 23:30N 37°46' W 122°21'0 0.0
2017-Oct-20 23:00N 37°46' W 122°21'0 0.0
2017-Oct-20 22:27N 37°46' W 122°21'0 0.0
2017-Oct-20 22:00N 37°46' W 122°21'0 0.1
2017-Oct-20 21:30N 37°46' W 122°21'0 0.2
2017-Oct-20 21:00N 37°46' W 122°21'0 0.1
2017-Oct-20 20:30N 37°46' W 122°21'0 0.2
2017-Oct-20 20:00N 37°46' W 122°21'0 0.0
2017-Oct-20 19:30N 37°46' W 122°21'0 0.0
2017-Oct-20 19:00N 37°46' W 122°21'0 0.0
2017-Oct-20 18:30N 37°46' W 122°21'0 0.0
2017-Oct-20 17:57N 37°46' W 122°21'0 0.0
2017-Oct-20 17:30N 37°46' W 122°21'0 0.0
2017-Oct-20 17:00N 37°46' W 122°21'0 0.0
2017-Oct-20 16:30N 37°46' W 122°21'0 0.0
2017-Oct-20 16:00N 37°46' W 122°21'0 0.0
2017-Oct-20 15:30N 37°46' W 122°21'0 0.2
2017-Oct-20 15:00N 37°46' W 122°21'0 0.2
2017-Oct-20 14:30N 37°46' W 122°21'0 0.0
2017-Oct-20 13:30N 37°46' W 122°21'0 0.0
2017-Oct-20 13:00N 37°46' W 122°21'0 0.0
2017-Oct-20 12:30N 37°46' W 122°21'0 0.0
2017-Oct-20 12:00N 37°46' W 122°21'0 0.0
2017-Oct-20 11:30N 37°46' W 122°21'0 0.0
2017-Oct-20 11:00N 37°46' W 122°21'0 0.0
2017-Oct-20 10:30N 37°46' W 122°21'0 0.1
2017-Oct-20 10:00N 37°46' W 122°21'0 0.0
2017-Oct-20 09:30N 37°46' W 122°21'0 0.2
2017-Oct-20 09:00N 37°46' W 122°21'0 0.2
2017-Oct-20 08:30N 37°46' W 122°21'0 0.1
2017-Oct-20 08:00N 37°46' W 122°21'0 0.1
2017-Oct-20 07:30N 37°46' W 122°21'0 0.0
2017-Oct-20 07:00N 37°46' W 122°21'0 0.0
2017-Oct-20 06:30N 37°46' W 122°21'0 0.1
2017-Oct-20 06:00N 37°46' W 122°21'0 0.0
2017-Oct-20 05:30N 37°46' W 122°21'0 0.0
2017-Oct-20 05:00N 37°46' W 122°21'0 0.0
2017-Oct-20 04:30N 37°46' W 122°21'0 0.0
2017-Oct-20 04:00N 37°46' W 122°21'0 0.0
2017-Oct-20 03:30N 37°46' W 122°21'0 0.3
2017-Oct-20 03:00N 37°46' W 122°21'0 0.1
2017-Oct-20 02:30N 37°46' W 122°21'0 0.1
2017-Oct-20 02:00N 37°46' W 122°21'0 0.0
2017-Oct-20 01:30N 37°46' W 122°21'0 0.0
2017-Oct-20 01:00N 37°46' W 122°21'0 0.0
2017-Oct-20 00:30N 37°46' W 122°21'0 0.0
2017-Oct-20 00:00N 37°46' W 122°21'0 0.0
2017-Oct-19 23:30N 37°46' W 122°21'0 0.0
2017-Oct-19 23:00N 37°46' W 122°21'0 0.0
2017-Oct-19 22:30N 37°46' W 122°21'0 0.1
2017-Oct-19 22:00N 37°46' W 122°21'0 0.0
2017-Oct-19 21:30N 37°46' W 122°21'0 0.1
2017-Oct-19 21:00N 37°46' W 122°21'0 0.1
2017-Oct-19 20:30N 37°46' W 122°21'0 0.3
2017-Oct-19 20:00N 37°46' W 122°21'0 0.1
2017-Oct-19 19:30N 37°46' W 122°21'0 0.0
2017-Oct-19 19:00N 37°46' W 122°21'0 0.0
2017-Oct-19 18:30N 37°46' W 122°21'0 0.0
2017-Oct-19 18:00N 37°46' W 122°21'0 0.0
2017-Oct-19 17:30N 37°46' W 122°21'0 0.0
2017-Oct-19 17:00N 37°46' W 122°21'0 0.0
2017-Oct-19 16:30N 37°46' W 122°21'0 0.0
2017-Oct-19 16:00N 37°46' W 122°21'0 0.1
2017-Oct-19 15:30N 37°46' W 122°21'0 0.0
2017-Oct-19 15:00N 37°46' W 122°21'0 0.0
2017-Oct-19 14:30N 37°46' W 122°21'0 0.2
2017-Oct-19 14:00N 37°46' W 122°21'0 0.1
2017-Oct-19 13:30N 37°46' W 122°21'0 0.1
2017-Oct-19 13:00N 37°46' W 122°21'0 0.0
2017-Oct-19 12:30N 37°46' W 122°21'0 0.0
2017-Oct-19 12:00N 37°46' W 122°21'0 0.0
2017-Oct-19 11:30N 37°46' W 122°21'0 0.0
2017-Oct-19 11:00N 37°46' W 122°21'0 0.0
2017-Oct-19 10:30N 37°46' W 122°21'0 0.0
2017-Oct-19 10:00N 37°46' W 122°21'0 0.0
2017-Oct-19 09:30N 37°46' W 122°21'0 0.0
2017-Oct-19 09:00N 37°46' W 122°21'0 0.0
2017-Oct-19 08:30N 37°46' W 122°21'0 0.3
2017-Oct-19 07:57N 37°46' W 122°21'0 0.2
2017-Oct-19 07:30N 37°46' W 122°21'0 0.0
2017-Oct-19 07:00N 37°46' W 122°21'0 0.0
2017-Oct-19 06:30N 37°46' W 122°21'0 0.0
2017-Oct-19 06:00N 37°46' W 122°21'0 0.0
2017-Oct-19 05:30N 37°46' W 122°21'0 0.0
2017-Oct-19 05:00N 37°46' W 122°21'0 0.0
2017-Oct-19 04:30N 37°46' W 122°21'0 0.0
2017-Oct-19 04:00N 37°46' W 122°21'0 0.0
2017-Oct-19 03:30N 37°46' W 122°21'0 0.0
2017-Oct-19 03:00N 37°46' W 122°21'0 0.1
2017-Oct-19 02:30N 37°46' W 122°21'0 0.1
2017-Oct-19 02:00N 37°46' W 122°21'0 0.3
2017-Oct-19 01:30N 37°46' W 122°21'0 0.1
2017-Oct-19 01:00N 37°46' W 122°21'0 0.0
2017-Oct-19 00:30N 37°46' W 122°21'0 0.0
2017-Oct-19 00:00N 37°46' W 122°21'0 0.0
2017-Oct-18 23:30N 37°46' W 122°21'0 0.0
2017-Oct-18 23:00N 37°46' W 122°21'0 0.0
2017-Oct-18 22:30N 37°46' W 122°21'0 0.0
2017-Oct-18 22:00N 37°46' W 122°21'0 0.0
2017-Oct-18 21:30N 37°46' W 122°21'0 0.0
2017-Oct-18 21:00N 37°46' W 122°21'0 0.0
2017-Oct-18 20:30N 37°46' W 122°21'0 0.1
2017-Oct-18 20:00N 37°46' W 122°21'0 0.2
2017-Oct-18 19:30N 37°46' W 122°21'0 0.2
2017-Oct-18 19:00N 37°46' W 122°21'0 0.1
2017-Oct-18 18:30N 37°46' W 122°21'0 0.0
2017-Oct-18 18:00N 37°46' W 122°21'0 0.1
2017-Oct-18 17:30N 37°46' W 122°21'0 0.0
2017-Oct-18 17:00N 37°46' W 122°21'0 0.1
2017-Oct-18 16:30N 37°46' W 122°21'0 0.0
2017-Oct-18 16:00N 37°46' W 122°21'0 0.0
2017-Oct-18 15:30N 37°46' W 122°21'0 0.0
2017-Oct-18 15:00N 37°46' W 122°21'0 0.0
2017-Oct-18 14:00N 37°46' W 122°21'0 0.2
2017-Oct-18 13:30N 37°46' W 122°21'0 0.2
2017-Oct-18 13:00N 37°46' W 122°21'0 0.1
2017-Oct-18 12:30N 37°46' W 122°21'0 0.0
2017-Oct-18 12:00N 37°46' W 122°21'0 0.0
2017-Oct-18 11:30N 37°46' W 122°21'0 0.0
2017-Oct-18 11:00N 37°46' W 122°21'0 0.0
2017-Oct-18 10:30N 37°46' W 122°21'0 0.0
2017-Oct-18 10:00N 37°46' W 122°21'0 0.0
2017-Oct-18 09:30N 37°46' W 122°21'0 0.0
2017-Oct-18 09:00N 37°46' W 122°21'0 0.0
2017-Oct-18 08:30N 37°46' W 122°21'0 0.1
2017-Oct-18 08:00N 37°46' W 122°21'0 0.1
2017-Oct-18 07:30N 37°46' W 122°21'0 0.2
2017-Oct-18 07:00N 37°46' W 122°21'0 0.2
2017-Oct-18 06:30N 37°46' W 122°21'0 0.0
2017-Oct-18 06:00N 37°46' W 122°21'0 0.0
2017-Oct-18 05:30N 37°46' W 122°21'0 0.0
2017-Oct-18 05:00N 37°46' W 122°21'0 0.0
2017-Oct-18 04:30N 37°46' W 122°21'0 0.0
2017-Oct-18 04:00N 37°46' W 122°21'0 0.0
2017-Oct-18 03:30N 37°46' W 122°21'0 0.0
2017-Oct-18 03:00N 37°46' W 122°21'0 0.0
2017-Oct-18 02:30N 37°46' W 122°21'0 0.1
2017-Oct-18 02:00N 37°46' W 122°21'0 0.1
2017-Oct-18 01:30N 37°46' W 122°21'0 0.2
2017-Oct-18 01:00N 37°46' W 122°21'0 0.2
2017-Oct-18 00:30N 37°46' W 122°21'0 0.1
2017-Oct-18 00:00N 37°46' W 122°21'0 0.0
2017-Oct-17 23:30N 37°46' W 122°21'0 0.0
2017-Oct-17 23:00N 37°46' W 122°21'0 0.0
2017-Oct-17 22:30N 37°46' W 122°21'0 0.0
2017-Oct-17 22:00N 37°46' W 122°21'0 0.0
2017-Oct-17 21:30N 37°46' W 122°21'0 0.0
2017-Oct-17 21:00N 37°46' W 122°21'0 0.0
2017-Oct-17 20:30N 37°46' W 122°21'0 0.1
2017-Oct-17 20:00N 37°46' W 122°21'0 0.0
2017-Oct-17 19:30N 37°46' W 122°21'0 0.3
2017-Oct-17 19:00N 37°46' W 122°21'0 0.1
2017-Oct-17 18:30N 37°46' W 122°21'0 0.1
2017-Oct-17 18:00N 37°46' W 122°21'0 0.0
2017-Oct-17 17:30N 37°46' W 122°21'0 0.0
2017-Oct-17 17:00N 37°46' W 122°21'0 0.0
2017-Oct-17 16:30N 37°46' W 122°21'0 0.0
2017-Oct-17 16:00N 37°46' W 122°21'0 0.0
2017-Oct-17 15:30N 37°46' W 122°21'0 0.0
2017-Oct-17 15:00N 37°46' W 122°21'0 0.0
2017-Oct-17 14:30N 37°46' W 122°21'0 0.0
2017-Oct-17 14:00N 37°46' W 122°21'0 0.0
2017-Oct-17 13:30N 37°46' W 122°21'0 0.1
2017-Oct-17 13:00N 37°46' W 122°21'0 0.3
2017-Oct-17 12:30N 37°46' W 122°21'3 6.5
2017-Oct-17 12:01N 37°49' W 122°24'611.4
2017-Oct-17 11:31N 37°54' W 122°25'2 3.2
2017-Oct-17 11:01N 37°54' W 122°23'1 2.6
2017-Oct-17 10:30N 37°55' W 122°22'0 0.1
2017-Oct-17 09:58N 37°55' W 122°22'0 0.0
2017-Oct-17 09:28N 37°55' W 122°22'0 0.0
2017-Oct-17 08:58N 37°55' W 122°22'0 0.0
2017-Oct-17 08:25N 37°55' W 122°22'0 0.0
2017-Oct-17 07:58N 37°55' W 122°22'0 0.0
2017-Oct-17 07:25N 37°55' W 122°22'0 0.0
2017-Oct-17 06:58N 37°55' W 122°22'0 0.0
2017-Oct-17 06:28N 37°55' W 122°22'0 0.0
2017-Oct-17 05:58N 37°55' W 122°22'0 0.0
2017-Oct-17 05:28N 37°55' W 122°22'0 0.0
2017-Oct-17 04:58N 37°55' W 122°22'0 0.0
2017-Oct-17 04:28N 37°55' W 122°22'0 0.0
2017-Oct-17 03:58N 37°55' W 122°22'0 0.0
2017-Oct-17 03:16N 37°55' W 122°22'0 0.0
2017-Oct-17 02:58N 37°55' W 122°22'0 0.0
2017-Oct-17 02:25N 37°55' W 122°22'0 0.0
2017-Oct-17 01:58N 37°55' W 122°22'0 0.0
2017-Oct-17 01:25N 37°55' W 122°22'0 0.0
2017-Oct-17 00:55N 37°55' W 122°22'0 0.0
2017-Oct-17 00:28N 37°55' W 122°22'0 0.0
2017-Oct-16 23:58N 37°55' W 122°22'0 0.0
2017-Oct-16 23:22N 37°55' W 122°22'0 0.0
2017-Oct-16 22:58N 37°55' W 122°22'0 0.0
2017-Oct-16 22:28N 37°55' W 122°22'0 0.0
2017-Oct-16 21:58N 37°55' W 122°22'0 0.0
2017-Oct-16 21:28N 37°55' W 122°22'0 0.0
2017-Oct-16 20:58N 37°55' W 122°22'0 0.0
2017-Oct-16 20:30N 37°55' W 122°22'0 0.2
2017-Oct-16 20:00N 37°55' W 122°22'1 1.9
2017-Oct-16 19:30N 37°54' W 122°23'2 4.4
2017-Oct-16 19:00N 37°55' W 122°25'2 4.8
2017-Oct-16 18:30N 37°52' W 122°25'3 5.5
2017-Oct-16 18:00N 37°50' W 122°27'510.5
2017-Oct-16 17:30N 37°47' W 122°33'612.0
2017-Oct-16 17:00N 37°46' W 122°40'4 8.9
2017-Oct-16 16:30N 37°47' W 122°46'611.7
2017-Oct-16 16:00N 37°49' W 122°53'612.3
2017-Oct-16 15:30N 37°52' W 122°59'612.5
2017-Oct-16 15:00N 37°55' W 123°06'1212.3
2017-Oct-16 14:00N 38°04' W 123°18'613.0
2017-Oct-16 13:30N 38°08' W 123°23'713.3
2017-Oct-16 13:00N 38°12' W 123°31'612.7
2017-Oct-16 12:30N 38°15' W 123°38'612.9
2017-Oct-16 12:00N 38°18' W 123°45'713.7
2017-Oct-16 11:30N 38°21' W 123°52'714.0
2017-Oct-16 11:01N 38°25' W 124°00'714.4
2017-Oct-16 10:31N 38°28' W 124°08'714.3
2017-Oct-16 10:00N 38°32' W 124°16'714.2
2017-Oct-16 09:30N 38°35' W 124°24'714.2
2017-Oct-16 09:00N 38°39' W 124°32'57912.4
2017-Oct-14 10:30N 48°17' W 125°15'712.5
2017-Oct-14 09:57N 48°23' W 125°09'612.6
2017-Oct-14 09:30N 48°27' W 125°04'612.2
2017-Oct-14 09:01N 48°30' W 124°57'714.1
2017-Oct-14 08:30N 48°31' W 124°46'713.9
2017-Oct-14 08:00N 48°29' W 124°36'713.7
2017-Oct-14 07:30N 48°26' W 124°26'713.8
2017-Oct-14 07:00N 48°23' W 124°17'713.7
2017-Oct-14 06:30N 48°20' W 124°07'713.1
2017-Oct-14 06:00N 48°18' W 123°58'813.5
2017-Oct-14 05:26N 48°17' W 123°47'613.5
2017-Oct-14 04:59N 48°16' W 123°38'611.9
2017-Oct-14 04:30N 48°17' W 123°29'611.9
2017-Oct-14 04:00N 48°22' W 123°25'4 7.6
2017-Oct-14 03:30N 48°23' W 123°19'611.3
2017-Oct-14 03:00N 48°26' W 123°12'714.1
2017-Oct-14 02:31N 48°33' W 123°13'713.8
2017-Oct-14 02:00N 48°39' W 123°15'612.3
2017-Oct-14 01:30N 48°44' W 123°09'613.0
2017-Oct-14 01:00N 48°48' W 123°01'713.2
2017-Oct-14 00:28N 48°53' W 123°07'613.7
2017-Oct-14 00:00N 48°58' W 123°14'713.8
2017-Oct-13 23:30N 49°03' W 123°22'612.5
2017-Oct-13 23:00N 49°09' W 123°23'713.2
2017-Oct-13 22:30N 49°15' W 123°21'611.7
2017-Oct-13 22:00N 49°19' W 123°14'510.9
2017-Oct-13 21:30N 49°18' W 123°06'4 6.7
2017-Oct-13 20:59N 49°18' W 123°00'0 0.0
2017-Oct-13 18:55N 49°18' W 123°00'0 0.0
2017-Oct-13 18:29N 49°18' W 123°00'0 0.0
2017-Oct-13 17:58N 49°18' W 123°00'0 0.0
2017-Oct-13 17:28N 49°18' W 123°00'0 0.0
2017-Oct-13 16:59N 49°18' W 123°00'0 0.0
2017-Oct-13 16:29N 49°18' W 123°00'0 0.0
2017-Oct-13 15:59N 49°18' W 123°00'0 0.0
2017-Oct-13 15:28N 49°18' W 123°00'0 0.0
2017-Oct-13 14:55N 49°18' W 123°00'0 0.0
2017-Oct-13 12:17N 49°18' W 123°00'0 0.0
2017-Oct-13 11:59N 49°18' W 123°00'0 0.0
2017-Oct-13 11:28N 49°18' W 123°00'0 0.0
2017-Oct-13 10:49N 49°18' W 123°00'0 0.0
2017-Oct-13 10:28N 49°18' W 123°00'0 0.0
2017-Oct-13 09:59N 49°18' W 123°00'0 0.0
2017-Oct-13 09:25N 49°18' W 123°00'0 0.0
2017-Oct-13 08:40N 49°18' W 123°00'0 0.0
2017-Oct-13 08:29N 49°18' W 123°00'0 0.0
2017-Oct-13 07:58N 49°18' W 123°00'0 0.0
2017-Oct-13 07:28N 49°18' W 123°00'0 0.0
2017-Oct-13 06:55N 49°18' W 123°00'0 0.0
2017-Oct-13 06:22N 49°18' W 123°00'0 0.0
2017-Oct-13 05:56N 49°18' W 123°00'0 0.0
2017-Oct-13 05:28N 49°18' W 123°00'0 0.0
2017-Oct-13 04:58N 49°18' W 123°00'0 0.0
2017-Oct-13 04:25N 49°18' W 123°00'0 0.0
2017-Oct-13 03:58N 49°18' W 123°00'0 0.0
2017-Oct-13 03:25N 49°18' W 123°00'0 0.0
2017-Oct-13 01:50N 49°18' W 123°00'0 0.0
2017-Oct-13 01:22N 49°18' W 123°00'0 0.0
2017-Oct-13 00:58N 49°18' W 123°00'0 0.0
2017-Oct-12 23:46N 49°18' W 123°00'0 0.0
2017-Oct-12 23:22N 49°18' W 123°00'0 0.0
2017-Oct-12 22:58N 49°18' W 123°00'0 0.0
2017-Oct-12 22:28N 49°18' W 123°00'0 0.0
2017-Oct-12 21:58N 49°18' W 123°00'0 0.0
2017-Oct-12 21:28N 49°18' W 123°00'0 0.0
2017-Oct-12 20:58N 49°18' W 123°00'0 0.0
2017-Oct-12 20:28N 49°18' W 123°00'0 0.4
2017-Oct-12 20:00N 49°18' W 123°00'2 3.9
2017-Oct-12 19:30N 49°18' W 122°57'0 0.4
2017-Oct-12 19:00N 49°18' W 122°57'0 0.0
2017-Oct-12 18:30N 49°18' W 122°57'0 0.1
2017-Oct-12 18:00N 49°18' W 122°57'0 0.1
2017-Oct-12 17:24N 49°18' W 122°57'0 0.1
2017-Oct-12 17:00N 49°18' W 122°57'0 0.1
2017-Oct-12 16:30N 49°18' W 122°57'0 0.0
2017-Oct-12 15:57N 49°18' W 122°57'0 0.1
2017-Oct-12 15:30N 49°18' W 122°57'0 0.2
2017-Oct-12 14:57N 49°18' W 122°57'0 0.0
2017-Oct-12 14:30N 49°18' W 122°57'0 0.1
2017-Oct-12 14:00N 49°18' W 122°57'0 0.0
2017-Oct-12 13:30N 49°18' W 122°57'0 0.1
2017-Oct-12 12:57N 49°18' W 122°57'0 0.0
2017-Oct-12 12:30N 49°18' W 122°57'0 0.1
2017-Oct-12 12:00N 49°18' W 122°57'0 0.0
2017-Oct-12 11:18N 49°18' W 122°57'0 0.0
2017-Oct-12 11:00N 49°18' W 122°57'0 0.0
2017-Oct-12 10:30N 49°18' W 122°57'  
Track history (hours):
 
Tides and Currents Weather Stations Pressure Air Temp Water Temp Dewpoint Dewpoint Depression Visibility Wind Speed Wind Dir Waves Ship Positions

Nord Steady

Last reported at 2017-Oct-22 10:01 UTC. Time now 2017-Oct-22 10:25 UTC.
Position N 37°46' W 122°21'.

Length 183 m; draft 8.2 m.

Type: Tanker. MMSI: 566739000.

Date/timePositionNaut miles runAvg speedWind from/ knotsBaromVisibWave heightAir tempDewpointWater temp
2017-Oct-22 10:01N 37°46' W 122°21'4 9.0
2017-Oct-22 09:30N 37°50' W 122°24'510.7
2017-Oct-22 09:00N 37°55' W 122°27'5 9.5
2017-Oct-22 08:30N 37°59' W 122°25'5 9.5
2017-Oct-22 08:00N 38°03' W 122°21'4 8.3
2017-Oct-22 07:30N 38°03' W 122°16'0 0.1
2017-Oct-22 07:00N 38°03' W 122°16'0 0.0
2017-Oct-21 07:48N 38°03' W 122°16'0 1.7
2017-Oct-21 07:30N 38°04' W 122°16'4 8.8
2017-Oct-21 07:00N 38°02' W 122°22'611.2
2017-Oct-21 06:30N 37°58' W 122°26'611.1
2017-Oct-21 06:00N 37°52' W 122°25'5 9.4
2017-Oct-21 05:30N 37°48' W 122°23'3 5.2
2017-Oct-21 05:00N 37°46' W 122°21'0 0.1
2017-Oct-21 04:30N 37°46' W 122°21'0 0.0
2017-Oct-21 04:00N 37°46' W 122°21'0 0.1
2017-Oct-21 03:30N 37°46' W 122°21'0 0.2
2017-Oct-21 03:00N 37°46' W 122°21'0 0.3
2017-Oct-21 02:30N 37°46' W 122°21'0 0.1
2017-Oct-21 02:00N 37°46' W 122°21'0 0.0
2017-Oct-21 01:30N 37°46' W 122°21'0 0.0
2017-Oct-21 01:00N 37°46' W 122°21'0 0.0
2017-Oct-21 00:30N 37°46' W 122°21'0 0.0
2017-Oct-21 00:00N 37°46' W 122°21'0 0.0
2017-Oct-20 23:30N 37°46' W 122°21'0 0.0
2017-Oct-20 23:00N 37°46' W 122°21'0 0.0
2017-Oct-20 22:27N 37°46' W 122°21'0 0.0
2017-Oct-20 22:00N 37°46' W 122°21'0 0.1
2017-Oct-20 21:30N 37°46' W 122°21'0 0.2
2017-Oct-20 21:00N 37°46' W 122°21'0 0.1
2017-Oct-20 20:30N 37°46' W 122°21'0 0.2
2017-Oct-20 20:00N 37°46' W 122°21'0 0.0
2017-Oct-20 19:30N 37°46' W 122°21'0 0.0
2017-Oct-20 19:00N 37°46' W 122°21'0 0.0
2017-Oct-20 18:30N 37°46' W 122°21'0 0.0
2017-Oct-20 17:57N 37°46' W 122°21'0 0.0
2017-Oct-20 17:30N 37°46' W 122°21'0 0.0
2017-Oct-20 17:00N 37°46' W 122°21'0 0.0
2017-Oct-20 16:30N 37°46' W 122°21'0 0.0
2017-Oct-20 16:00N 37°46' W 122°21'0 0.0
2017-Oct-20 15:30N 37°46' W 122°21'0 0.2
2017-Oct-20 15:00N 37°46' W 122°21'0 0.2
2017-Oct-20 14:30N 37°46' W 122°21'0 0.0
2017-Oct-20 13:30N 37°46' W 122°21'0 0.0
2017-Oct-20 13:00N 37°46' W 122°21'0 0.0
2017-Oct-20 12:30N 37°46' W 122°21'0 0.0
2017-Oct-20 12:00N 37°46' W 122°21'0 0.0
2017-Oct-20 11:30N 37°46' W 122°21'0 0.0
2017-Oct-20 11:00N 37°46' W 122°21'0 0.0
2017-Oct-20 10:30N 37°46' W 122°21'0 0.1
2017-Oct-20 10:00N 37°46' W 122°21'0 0.0
2017-Oct-20 09:30N 37°46' W 122°21'0 0.2
2017-Oct-20 09:00N 37°46' W 122°21'0 0.2
2017-Oct-20 08:30N 37°46' W 122°21'0 0.1
2017-Oct-20 08:00N 37°46' W 122°21'0 0.1
2017-Oct-20 07:30N 37°46' W 122°21'0 0.0
2017-Oct-20 07:00N 37°46' W 122°21'0 0.0
2017-Oct-20 06:30N 37°46' W 122°21'0 0.1
2017-Oct-20 06:00N 37°46' W 122°21'0 0.0
2017-Oct-20 05:30N 37°46' W 122°21'0 0.0
2017-Oct-20 05:00N 37°46' W 122°21'0 0.0
2017-Oct-20 04:30N 37°46' W 122°21'0 0.0
2017-Oct-20 04:00N 37°46' W 122°21'0 0.0
2017-Oct-20 03:30N 37°46' W 122°21'0 0.3
2017-Oct-20 03:00N 37°46' W 122°21'0 0.1
2017-Oct-20 02:30N 37°46' W 122°21'0 0.1
2017-Oct-20 02:00N 37°46' W 122°21'0 0.0
2017-Oct-20 01:30N 37°46' W 122°21'0 0.0
2017-Oct-20 01:00N 37°46' W 122°21'0 0.0
2017-Oct-20 00:30N 37°46' W 122°21'0 0.0
2017-Oct-20 00:00N 37°46' W 122°21'0 0.0
2017-Oct-19 23:30N 37°46' W 122°21'0 0.0
2017-Oct-19 23:00N 37°46' W 122°21'0 0.0
2017-Oct-19 22:30N 37°46' W 122°21'0 0.1
2017-Oct-19 22:00N 37°46' W 122°21'0 0.0
2017-Oct-19 21:30N 37°46' W 122°21'0 0.1
2017-Oct-19 21:00N 37°46' W 122°21'0 0.1
2017-Oct-19 20:30N 37°46' W 122°21'0 0.3
2017-Oct-19 20:00N 37°46' W 122°21'0 0.1
2017-Oct-19 19:30N 37°46' W 122°21'0 0.0
2017-Oct-19 19:00N 37°46' W 122°21'0 0.0
2017-Oct-19 18:30N 37°46' W 122°21'0 0.0
2017-Oct-19 18:00N 37°46' W 122°21'0 0.0
2017-Oct-19 17:30N 37°46' W 122°21'0 0.0
2017-Oct-19 17:00N 37°46' W 122°21'0 0.0
2017-Oct-19 16:30N 37°46' W 122°21'0 0.0
2017-Oct-19 16:00N 37°46' W 122°21'0 0.1
2017-Oct-19 15:30N 37°46' W 122°21'0 0.0
2017-Oct-19 15:00N 37°46' W 122°21'0 0.0
2017-Oct-19 14:30N 37°46' W 122°21'0 0.2
2017-Oct-19 14:00N 37°46' W 122°21'0 0.1
2017-Oct-19 13:30N 37°46' W 122°21'0 0.1
2017-Oct-19 13:00N 37°46' W 122°21'0 0.0
2017-Oct-19 12:30N 37°46' W 122°21'0 0.0
2017-Oct-19 12:00N 37°46' W 122°21'0 0.0
2017-Oct-19 11:30N 37°46' W 122°21'0 0.0
2017-Oct-19 11:00N 37°46' W 122°21'0 0.0
2017-Oct-19 10:30N 37°46' W 122°21'0 0.0
2017-Oct-19 10:00N 37°46' W 122°21'0 0.0
2017-Oct-19 09:30N 37°46' W 122°21'0 0.0
2017-Oct-19 09:00N 37°46' W 122°21'0 0.0
2017-Oct-19 08:30N 37°46' W 122°21'0 0.3
2017-Oct-19 07:57N 37°46' W 122°21'0 0.2
2017-Oct-19 07:30N 37°46' W 122°21'0 0.0
2017-Oct-19 07:00N 37°46' W 122°21'0 0.0
2017-Oct-19 06:30N 37°46' W 122°21'0 0.0
2017-Oct-19 06:00N 37°46' W 122°21'0 0.0
2017-Oct-19 05:30N 37°46' W 122°21'0 0.0
2017-Oct-19 05:00N 37°46' W 122°21'0 0.0
2017-Oct-19 04:30N 37°46' W 122°21'0 0.0
2017-Oct-19 04:00N 37°46' W 122°21'0 0.0
2017-Oct-19 03:30N 37°46' W 122°21'0 0.0
2017-Oct-19 03:00N 37°46' W 122°21'0 0.1
2017-Oct-19 02:30N 37°46' W 122°21'0 0.1
2017-Oct-19 02:00N 37°46' W 122°21'0 0.3
2017-Oct-19 01:30N 37°46' W 122°21'0 0.1
2017-Oct-19 01:00N 37°46' W 122°21'0 0.0
2017-Oct-19 00:30N 37°46' W 122°21'0 0.0
2017-Oct-19 00:00N 37°46' W 122°21'0 0.0
2017-Oct-18 23:30N 37°46' W 122°21'0 0.0
2017-Oct-18 23:00N 37°46' W 122°21'0 0.0
2017-Oct-18 22:30N 37°46' W 122°21'0 0.0
2017-Oct-18 22:00N 37°46' W 122°21'0 0.0
2017-Oct-18 21:30N 37°46' W 122°21'0 0.0
2017-Oct-18 21:00N 37°46' W 122°21'0 0.0
2017-Oct-18 20:30N 37°46' W 122°21'0 0.1
2017-Oct-18 20:00N 37°46' W 122°21'0 0.2
2017-Oct-18 19:30N 37°46' W 122°21'0 0.2
2017-Oct-18 19:00N 37°46' W 122°21'0 0.1
2017-Oct-18 18:30N 37°46' W 122°21'0 0.0
2017-Oct-18 18:00N 37°46' W 122°21'0 0.1
2017-Oct-18 17:30N 37°46' W 122°21'0 0.0
2017-Oct-18 17:00N 37°46' W 122°21'0 0.1
2017-Oct-18 16:30N 37°46' W 122°21'0 0.0
2017-Oct-18 16:00N 37°46' W 122°21'0 0.0
2017-Oct-18 15:30N 37°46' W 122°21'0 0.0
2017-Oct-18 15:00N 37°46' W 122°21'0 0.0
2017-Oct-18 14:00N 37°46' W 122°21'0 0.2
2017-Oct-18 13:30N 37°46' W 122°21'0 0.2
2017-Oct-18 13:00N 37°46' W 122°21'0 0.1
2017-Oct-18 12:30N 37°46' W 122°21'0 0.0
2017-Oct-18 12:00N 37°46' W 122°21'0 0.0
2017-Oct-18 11:30N 37°46' W 122°21'0 0.0
2017-Oct-18 11:00N 37°46' W 122°21'0 0.0
2017-Oct-18 10:30N 37°46' W 122°21'0 0.0
2017-Oct-18 10:00N 37°46' W 122°21'0 0.0
2017-Oct-18 09:30N 37°46' W 122°21'0 0.0
2017-Oct-18 09:00N 37°46' W 122°21'0 0.0
2017-Oct-18 08:30N 37°46' W 122°21'0 0.1
2017-Oct-18 08:00N 37°46' W 122°21'0 0.1
2017-Oct-18 07:30N 37°46' W 122°21'0 0.2
2017-Oct-18 07:00N 37°46' W 122°21'0 0.2
2017-Oct-18 06:30N 37°46' W 122°21'0 0.0
2017-Oct-18 06:00N 37°46' W 122°21'0 0.0
2017-Oct-18 05:30N 37°46' W 122°21'0 0.0
2017-Oct-18 05:00N 37°46' W 122°21'0 0.0
2017-Oct-18 04:30N 37°46' W 122°21'0 0.0
2017-Oct-18 04:00N 37°46' W 122°21'0 0.0
2017-Oct-18 03:30N 37°46' W 122°21'0 0.0
2017-Oct-18 03:00N 37°46' W 122°21'0 0.0
2017-Oct-18 02:30N 37°46' W 122°21'0 0.1
2017-Oct-18 02:00N 37°46' W 122°21'0 0.1
2017-Oct-18 01:30N 37°46' W 122°21'0 0.2
2017-Oct-18 01:00N 37°46' W 122°21'0 0.2
2017-Oct-18 00:30N 37°46' W 122°21'0 0.1
2017-Oct-18 00:00N 37°46' W 122°21'0 0.0
2017-Oct-17 23:30N 37°46' W 122°21'0 0.0
2017-Oct-17 23:00N 37°46' W 122°21'0 0.0
2017-Oct-17 22:30N 37°46' W 122°21'0 0.0
2017-Oct-17 22:00N 37°46' W 122°21'0 0.0
2017-Oct-17 21:30N 37°46' W 122°21'0 0.0
2017-Oct-17 21:00N 37°46' W 122°21'0 0.0
2017-Oct-17 20:30N 37°46' W 122°21'0 0.1
2017-Oct-17 20:00N 37°46' W 122°21'0 0.0
2017-Oct-17 19:30N 37°46' W 122°21'0 0.3
2017-Oct-17 19:00N 37°46' W 122°21'0 0.1
2017-Oct-17 18:30N 37°46' W 122°21'0 0.1
2017-Oct-17 18:00N 37°46' W 122°21'0 0.0
2017-Oct-17 17:30N 37°46' W 122°21'0 0.0
2017-Oct-17 17:00N 37°46' W 122°21'0 0.0
2017-Oct-17 16:30N 37°46' W 122°21'0 0.0
2017-Oct-17 16:00N 37°46' W 122°21'0 0.0
2017-Oct-17 15:30N 37°46' W 122°21'0 0.0
2017-Oct-17 15:00N 37°46' W 122°21'0 0.0
2017-Oct-17 14:30N 37°46' W 122°21'0 0.0
2017-Oct-17 14:00N 37°46' W 122°21'0 0.0
2017-Oct-17 13:30N 37°46' W 122°21'0 0.1
2017-Oct-17 13:00N 37°46' W 122°21'0 0.3
2017-Oct-17 12:30N 37°46' W 122°21'3 6.5
2017-Oct-17 12:01N 37°49' W 122°24'611.4
2017-Oct-17 11:31N 37°54' W 122°25'2 3.2
2017-Oct-17 11:01N 37°54' W 122°23'1 2.6
2017-Oct-17 10:30N 37°55' W 122°22'0 0.1
2017-Oct-17 09:58N 37°55' W 122°22'0 0.0
2017-Oct-17 09:28N 37°55' W 122°22'0 0.0
2017-Oct-17 08:58N 37°55' W 122°22'0 0.0
2017-Oct-17 08:25N 37°55' W 122°22'0 0.0
2017-Oct-17 07:58N 37°55' W 122°22'0 0.0
2017-Oct-17 07:25N 37°55' W 122°22'0 0.0
2017-Oct-17 06:58N 37°55' W 122°22'0 0.0
2017-Oct-17 06:28N 37°55' W 122°22'0 0.0
2017-Oct-17 05:58N 37°55' W 122°22'0 0.0
2017-Oct-17 05:28N 37°55' W 122°22'0 0.0
2017-Oct-17 04:58N 37°55' W 122°22'0 0.0
2017-Oct-17 04:28N 37°55' W 122°22'0 0.0
2017-Oct-17 03:58N 37°55' W 122°22'0 0.0
2017-Oct-17 03:16N 37°55' W 122°22'0 0.0
2017-Oct-17 02:58N 37°55' W 122°22'0 0.0
2017-Oct-17 02:25N 37°55' W 122°22'0 0.0
2017-Oct-17 01:58N 37°55' W 122°22'0 0.0
2017-Oct-17 01:25N 37°55' W 122°22'0 0.0
2017-Oct-17 00:55N 37°55' W 122°22'0 0.0
2017-Oct-17 00:28N 37°55' W 122°22'0 0.0
2017-Oct-16 23:58N 37°55' W 122°22'0 0.0
2017-Oct-16 23:22N 37°55' W 122°22'0 0.0
2017-Oct-16 22:58N 37°55' W 122°22'0 0.0
2017-Oct-16 22:28N 37°55' W 122°22'0 0.0
2017-Oct-16 21:58N 37°55' W 122°22'0 0.0
2017-Oct-16 21:28N 37°55' W 122°22'0 0.0
2017-Oct-16 20:58N 37°55' W 122°22'0 0.0
2017-Oct-16 20:30N 37°55' W 122°22'0 0.2
2017-Oct-16 20:00N 37°55' W 122°22'1 1.9
2017-Oct-16 19:30N 37°54' W 122°23'2 4.4
2017-Oct-16 19:00N 37°55' W 122°25'2 4.8
2017-Oct-16 18:30N 37°52' W 122°25'3 5.5
2017-Oct-16 18:00N 37°50' W 122°27'510.5
2017-Oct-16 17:30N 37°47' W 122°33'612.0
2017-Oct-16 17:00N 37°46' W 122°40'4 8.9
2017-Oct-16 16:30N 37°47' W 122°46'611.7
2017-Oct-16 16:00N 37°49' W 122°53'612.3
2017-Oct-16 15:30N 37°52' W 122°59'612.5
2017-Oct-16 15:00N 37°55' W 123°06'1212.3
2017-Oct-16 14:00N 38°04' W 123°18'613.0
2017-Oct-16 13:30N 38°08' W 123°23'713.3
2017-Oct-16 13:00N 38°12' W 123°31'612.7
2017-Oct-16 12:30N 38°15' W 123°38'612.9
2017-Oct-16 12:00N 38°18' W 123°45'713.7
2017-Oct-16 11:30N 38°21' W 123°52'714.0
2017-Oct-16 11:01N 38°25' W 124°00'714.4
2017-Oct-16 10:31N 38°28' W 124°08'714.3
2017-Oct-16 10:00N 38°32' W 124°16'714.2
2017-Oct-16 09:30N 38°35' W 124°24'714.2
2017-Oct-16 09:00N 38°39' W 124°32'57912.4
2017-Oct-14 10:30N 48°17' W 125°15'712.5
2017-Oct-14 09:57N 48°23' W 125°09'612.6
2017-Oct-14 09:30N 48°27' W 125°04'612.2
2017-Oct-14 09:01N 48°30' W 124°57'714.1
2017-Oct-14 08:30N 48°31' W 124°46'713.9
2017-Oct-14 08:00N 48°29' W 124°36'713.7
2017-Oct-14 07:30N 48°26' W 124°26'713.8
2017-Oct-14 07:00N 48°23' W 124°17'713.7
2017-Oct-14 06:30N 48°20' W 124°07'713.1
2017-Oct-14 06:00N 48°18' W 123°58'813.5
2017-Oct-14 05:26N 48°17' W 123°47'613.5
2017-Oct-14 04:59N 48°16' W 123°38'611.9
2017-Oct-14 04:30N 48°17' W 123°29'611.9
2017-Oct-14 04:00N 48°22' W 123°25'4 7.6
2017-Oct-14 03:30N 48°23' W 123°19'611.3
2017-Oct-14 03:00N 48°26' W 123°12'714.1
2017-Oct-14 02:31N 48°33' W 123°13'713.8
2017-Oct-14 02:00N 48°39' W 123°15'612.3
2017-Oct-14 01:30N 48°44' W 123°09'613.0
2017-Oct-14 01:00N 48°48' W 123°01'713.2
2017-Oct-14 00:28N 48°53' W 123°07'613.7
2017-Oct-14 00:00N 48°58' W 123°14'713.8
2017-Oct-13 23:30N 49°03' W 123°22'612.5
2017-Oct-13 23:00N 49°09' W 123°23'713.2
2017-Oct-13 22:30N 49°15' W 123°21'611.7
2017-Oct-13 22:00N 49°19' W 123°14'510.9
2017-Oct-13 21:30N 49°18' W 123°06'4 6.7
2017-Oct-13 20:59N 49°18' W 123°00'0 0.0
2017-Oct-13 18:55N 49°18' W 123°00'0 0.0
2017-Oct-13 18:29N 49°18' W 123°00'0 0.0
2017-Oct-13 17:58N 49°18' W 123°00'0 0.0
2017-Oct-13 17:28N 49°18' W 123°00'0 0.0
2017-Oct-13 16:59N 49°18' W 123°00'0 0.0
2017-Oct-13 16:29N 49°18' W 123°00'0 0.0
2017-Oct-13 15:59N 49°18' W 123°00'0 0.0
2017-Oct-13 15:28N 49°18' W 123°00'0 0.0
2017-Oct-13 14:55N 49°18' W 123°00'0 0.0
2017-Oct-13 12:17N 49°18' W 123°00'0 0.0
2017-Oct-13 11:59N 49°18' W 123°00'0 0.0
2017-Oct-13 11:28N 49°18' W 123°00'0 0.0
2017-Oct-13 10:49N 49°18' W 123°00'0 0.0
2017-Oct-13 10:28N 49°18' W 123°00'0 0.0
2017-Oct-13 09:59N 49°18' W 123°00'0 0.0
2017-Oct-13 09:25N 49°18' W 123°00'0 0.0
2017-Oct-13 08:40N 49°18' W 123°00'0 0.0
2017-Oct-13 08:29N 49°18' W 123°00'0 0.0
2017-Oct-13 07:58N 49°18' W 123°00'0 0.0
2017-Oct-13 07:28N 49°18' W 123°00'0 0.0
2017-Oct-13 06:55N 49°18' W 123°00'0 0.0
2017-Oct-13 06:22N 49°18' W 123°00'0 0.0
2017-Oct-13 05:56N 49°18' W 123°00'0 0.0
2017-Oct-13 05:28N 49°18' W 123°00'0 0.0
2017-Oct-13 04:58N 49°18' W 123°00'0 0.0
2017-Oct-13 04:25N 49°18' W 123°00'0 0.0
2017-Oct-13 03:58N 49°18' W 123°00'0 0.0
2017-Oct-13 03:25N 49°18' W 123°00'0 0.0
2017-Oct-13 01:50N 49°18' W 123°00'0 0.0
2017-Oct-13 01:22N 49°18' W 123°00'0 0.0
2017-Oct-13 00:58N 49°18' W 123°00'0 0.0
2017-Oct-12 23:46N 49°18' W 123°00'0 0.0
2017-Oct-12 23:22N 49°18' W 123°00'0 0.0
2017-Oct-12 22:58N 49°18' W 123°00'0 0.0
2017-Oct-12 22:28N 49°18' W 123°00'0 0.0
2017-Oct-12 21:58N 49°18' W 123°00'0 0.0
2017-Oct-12 21:28N 49°18' W 123°00'0 0.0
2017-Oct-12 20:58N 49°18' W 123°00'0 0.0
2017-Oct-12 20:28N 49°18' W 123°00'0 0.4
2017-Oct-12 20:00N 49°18' W 123°00'2 3.9
2017-Oct-12 19:30N 49°18' W 122°57'0 0.4
2017-Oct-12 19:00N 49°18' W 122°57'0 0.0
2017-Oct-12 18:30N 49°18' W 122°57'0 0.1
2017-Oct-12 18:00N 49°18' W 122°57'0 0.1
2017-Oct-12 17:24N 49°18' W 122°57'0 0.1
2017-Oct-12 17:00N 49°18' W 122°57'0 0.1
2017-Oct-12 16:30N 49°18' W 122°57'0 0.0
2017-Oct-12 15:57N 49°18' W 122°57'0 0.1
2017-Oct-12 15:30N 49°18' W 122°57'0 0.2
2017-Oct-12 14:57N 49°18' W 122°57'0 0.0
2017-Oct-12 14:30N 49°18' W 122°57'0 0.1
2017-Oct-12 14:00N 49°18' W 122°57'0 0.0
2017-Oct-12 13:30N 49°18' W 122°57'0 0.1
2017-Oct-12 12:57N 49°18' W 122°57'0 0.0
2017-Oct-12 12:30N 49°18' W 122°57'0 0.1
2017-Oct-12 12:00N 49°18' W 122°57'0 0.0
2017-Oct-12 11:18N 49°18' W 122°57'0 0.0
2017-Oct-12 11:00N 49°18' W 122°57'0 0.0
2017-Oct-12 10:30N 49°18' W 122°57'  

Dump ship's entire track history